Time,TemperatureF,DewpointF,PressureIn,WindDirection,WindDirectionDegrees,WindSpeedMPH,WindSpeedGustMPH,Humidity,HourlyPrecipIn,Conditions,Clouds,dailyrainin,SoftwareType,DateUTC
2013-04-28 00:00:00,57.4,48.0,30.05,SSE,166,0.0,1.0,70,0.00,,,0.00,weatherlink.com 1.10,2013-04-28 04:00:00,
2013-04-28 00:15:00,57.1,48.0,30.05,SSE,166,0.0,0.0,71,0.00,,,0.00,weatherlink.com 1.10,2013-04-28 04:15:00,
2013-04-28 00:30:00,56.9,48.0,30.04,South,171,0.0,2.0,71,0.00,,,0.00,weatherlink.com 1.10,2013-04-28 04:30:00,
2013-04-28 00:45:00,57.1,48.0,30.03,South,188,0.0,3.0,72,0.00,,,0.00,weatherlink.com 1.10,2013-04-28 04:45:00,
2013-04-28 01:00:00,57.0,48.0,30.03,NE,50,0.0,3.0,73,0.00,,,0.00,weatherlink.com 1.10,2013-04-28 05:00:00,
2013-04-28 01:15:00,56.9,49.0,30.02,SE,124,2.0,4.0,74,0.00,,,0.00,weatherlink.com 1.10,2013-04-28 05:15:00,
2013-04-28 01:30:00,56.8,49.0,30.02,SE,140,2.0,3.0,74,0.00,,,0.00,weatherlink.com 1.10,2013-04-28 05:30:00,
2013-04-28 01:45:00,56.6,49.0,30.01,SE,142,0.0,0.0,76,0.00,,,0.00,weatherlink.com 1.10,2013-04-28 05:45:00,
2013-04-28 02:00:00,55.9,50.0,30.00,SSE,153,1.0,1.0,79,0.00,,,0.00,weatherlink.com 1.10,2013-04-28 06:00:00,
2013-04-28 02:15:00,55.7,49.0,30.00,SE,136,2.0,4.0,79,0.00,,,0.00,weatherlink.com 1.10,2013-04-28 06:15:00,
2013-04-28 02:30:00,55.8,49.0,29.99,South,189,2.0,4.0,79,0.00,,,0.00,weatherlink.com 1.10,2013-04-28 06:30:00,
2013-04-28 02:45:00,55.7,50.0,29.98,ESE,103,0.0,5.0,80,0.00,,,0.00,weatherlink.com 1.10,2013-04-28 06:45:00,
2013-04-28 03:00:00,55.7,50.0,29.97,SE,130,0.0,5.0,80,0.00,,,0.00,weatherlink.com 1.10,2013-04-28 07:00:00,
2013-04-28 03:15:00,55.6,50.0,29.96,ESE,123,4.0,4.0,81,0.00,,,0.00,weatherlink.com 1.10,2013-04-28 07:15:00,
2013-04-28 03:30:00,55.5,50.0,29.95,SE,126,1.0,2.0,81,0.00,,,0.00,weatherlink.com 1.10,2013-04-28 07:30:00,
2013-04-28 03:45:00,55.4,50.0,29.95,ESE,103,1.0,4.0,81,0.00,,,0.00,weatherlink.com 1.10,2013-04-28 07:45:00,
2013-04-28 04:00:00,55.5,49.0,29.95,East,93,1.0,5.0,80,0.00,,,0.00,weatherlink.com 1.10,2013-04-28 08:00:00,
2013-04-28 04:15:00,55.4,49.0,29.94,ENE,71,1.0,2.0,80,0.00,,,0.00,weatherlink.com 1.10,2013-04-28 08:15:00,
2013-04-28 04:30:00,55.3,50.0,29.94,ESE,108,0.0,2.0,82,0.00,,,0.00,weatherlink.com 1.10,2013-04-28 08:30:00,
2013-04-28 04:45:00,54.5,50.0,29.93,East,92,0.0,1.0,85,0.01,,,0.01,weatherlink.com 1.10,2013-04-28 08:45:00,
2013-04-28 05:00:00,53.6,50.0,29.93,East,95,1.0,2.0,88,0.02,,,0.02,weatherlink.com 1.10,2013-04-28 09:00:00,
2013-04-28 05:16:00,52.8,50.0,29.92,ESE,110,1.0,2.0,89,0.03,,,0.03,weatherlink.com 1.10,2013-04-28 09:16:00,
2013-04-28 05:31:00,52.1,50.0,29.92,ESE,114,0.0,2.0,91,0.04,,,0.04,weatherlink.com 1.10,2013-04-28 09:31:00,
2013-04-28 05:46:00,51.5,49.0,29.92,ESE,102,0.0,2.0,92,0.05,,,0.06,weatherlink.com 1.10,2013-04-28 09:46:00,
2013-04-28 06:01:00,51.1,49.0,29.92,ESE,108,0.0,2.0,93,0.06,,,0.08,weatherlink.com 1.10,2013-04-28 10:01:00,
2013-04-28 06:16:00,50.9,49.0,29.92,ESE,105,0.0,2.0,94,0.07,,,0.10,weatherlink.com 1.10,2013-04-28 10:16:00,
2013-04-28 06:31:00,50.7,49.0,29.91,East,101,0.0,2.0,94,0.08,,,0.12,weatherlink.com 1.10,2013-04-28 10:31:00,
2013-04-28 06:46:00,50.6,49.0,29.91,East,88,1.0,2.0,95,0.08,,,0.14,weatherlink.com 1.10,2013-04-28 10:46:00,
2013-04-28 07:01:00,50.5,49.0,29.91,East,96,2.0,3.0,95,0.10,,,0.18,weatherlink.com 1.10,2013-04-28 11:01:00,
2013-04-28 07:16:00,50.4,49.0,29.91,ESE,107,1.0,3.0,95,0.14,,,0.24,weatherlink.com 1.10,2013-04-28 11:16:00,
2013-04-28 07:31:00,50.4,49.0,29.91,ESE,109,2.0,3.0,96,0.19,,,0.31,weatherlink.com 1.10,2013-04-28 11:31:00,
2013-04-28 07:46:00,50.4,49.0,29.91,ESE,106,0.0,2.0,96,0.21,,,0.36,weatherlink.com 1.10,2013-04-28 11:46:00,
2013-04-28 08:01:00,50.5,49.0,29.90,East,99,2.0,3.0,96,0.20,,,0.38,weatherlink.com 1.10,2013-04-28 12:01:00,
2013-04-28 08:16:00,50.6,50.0,29.90,East,95,1.0,3.0,96,0.14,,,0.39,weatherlink.com 1.10,2013-04-28 12:16:00,
2013-04-28 08:31:00,50.8,50.0,29.89,ESE,123,2.0,3.0,96,0.08,,,0.40,weatherlink.com 1.10,2013-04-28 12:31:00,
2013-04-28 08:46:00,51.1,50.0,29.90,East,94,1.0,4.0,96,0.04,,,0.40,weatherlink.com 1.10,2013-04-28 12:46:00,
2013-04-28 09:01:00,51.4,51.0,29.89,East,97,1.0,2.0,97,0.02,,,0.40,weatherlink.com 1.10,2013-04-28 13:01:00,
2013-04-28 09:16:00,51.6,51.0,29.89,East,100,0.0,3.0,97,0.01,,,0.40,weatherlink.com 1.10,2013-04-28 13:16:00,
2013-04-28 09:31:00,51.9,51.0,29.89,ESE,109,1.0,3.0,97,0.00,,,0.40,weatherlink.com 1.10,2013-04-28 13:31:00,
2013-04-28 09:46:00,52.2,51.0,29.88,SE,126,2.0,3.0,97,0.00,,,0.40,weatherlink.com 1.10,2013-04-28 13:46:00,
2013-04-28 10:01:00,52.5,52.0,29.88,ESE,117,2.0,4.0,97,0.00,,,0.40,weatherlink.com 1.10,2013-04-28 14:01:00,
2013-04-28 10:16:00,52.6,52.0,29.87,East,95,0.0,2.0,97,0.00,,,0.40,weatherlink.com 1.10,2013-04-28 14:16:00,
2013-04-28 10:31:00,52.7,52.0,29.87,SE,144,2.0,3.0,97,0.00,,,0.40,weatherlink.com 1.10,2013-04-28 14:31:00,
2013-04-28 10:46:00,53.0,52.0,29.86,SE,125,0.0,4.0,97,0.00,,,0.40,weatherlink.com 1.10,2013-04-28 14:46:00,
2013-04-28 11:01:00,53.3,53.0,29.86,East,101,0.0,5.0,97,0.00,,,0.40,weatherlink.com 1.10,2013-04-28 15:01:00,
2013-04-28 11:16:00,53.6,53.0,29.86,ESE,115,0.0,3.0,97,0.01,,,0.41,weatherlink.com 1.10,2013-04-28 15:16:00,
2013-04-28 11:31:00,53.7,53.0,29.86,ESE,103,0.0,2.0,97,0.01,,,0.41,weatherlink.com 1.10,2013-04-28 15:31:00,
2013-04-28 11:46:00,53.9,53.0,29.86,East,85,1.0,3.0,97,0.01,,,0.41,weatherlink.com 1.10,2013-04-28 15:46:00,
2013-04-28 12:01:00,54.1,53.0,29.86,ESE,121,3.0,3.0,97,0.01,,,0.41,weatherlink.com 1.10,2013-04-28 16:01:00,
2013-04-28 12:16:00,54.2,53.0,29.86,SSE,148,0.0,2.0,97,0.00,,,0.41,weatherlink.com 1.10,2013-04-28 16:16:00,
2013-04-28 12:31:00,54.4,54.0,29.86,SE,140,0.0,1.0,97,0.00,,,0.41,weatherlink.com 1.10,2013-04-28 16:31:00,
2013-04-28 12:46:00,54.7,54.0,29.86,ESE,120,0.0,1.0,97,0.00,,,0.41,weatherlink.com 1.10,2013-04-28 16:46:00,
2013-04-28 13:01:00,55.0,54.0,29.85,SE,127,0.0,3.0,97,0.00,,,0.41,weatherlink.com 1.10,2013-04-28 17:01:00,
2013-04-28 13:16:00,55.5,55.0,29.84,SSE,153,0.0,2.0,97,0.01,,,0.42,weatherlink.com 1.10,2013-04-28 17:16:00,
2013-04-28 13:31:00,55.9,55.0,29.84,South,176,0.0,1.0,98,0.01,,,0.42,weatherlink.com 1.10,2013-04-28 17:31:00,
2013-04-28 13:46:00,56.4,56.0,29.84,SSE,157,0.0,2.0,98,0.01,,,0.42,weatherlink.com 1.10,2013-04-28 17:46:00,
2013-04-28 14:01:00,56.6,56.0,29.84,South,184,0.0,3.0,97,0.01,,,0.42,weatherlink.com 1.10,2013-04-28 18:01:00,
2013-04-28 14:16:00,56.8,56.0,29.83,SW,216,0.0,1.0,97,0.00,,,0.42,weatherlink.com 1.10,2013-04-28 18:16:00,
2013-04-28 14:31:00,57.1,56.0,29.83,South,178,0.0,1.0,97,0.00,,,0.42,weatherlink.com 1.10,2013-04-28 18:31:00,
2013-04-28 14:47:00,57.5,57.0,29.83,SSW,196,0.0,2.0,97,0.00,,,0.42,weatherlink.com 1.10,2013-04-28 18:47:00,
2013-04-28 15:02:00,57.9,57.0,29.83,SSW,196,0.0,1.0,97,0.01,,,0.43,weatherlink.com 1.10,2013-04-28 19:02:00,
2013-04-28 15:17:00,58.3,57.0,29.83,WSW,252,0.0,1.0,96,0.01,,,0.43,weatherlink.com 1.10,2013-04-28 19:17:00,
2013-04-28 15:32:00,58.1,57.0,29.83,WSW,252,0.0,0.0,95,0.01,,,0.43,weatherlink.com 1.10,2013-04-28 19:32:00,
2013-04-28 15:47:00,57.9,57.0,29.82,WSW,253,1.0,2.0,96,0.01,,,0.43,weatherlink.com 1.10,2013-04-28 19:47:00,
2013-04-28 16:02:00,57.7,57.0,29.82,West,276,0.0,3.0,96,0.00,,,0.43,weatherlink.com 1.10,2013-04-28 20:02:00,
2013-04-28 16:17:00,57.8,57.0,29.82,West,269,0.0,3.0,96,0.00,,,0.43,weatherlink.com 1.10,2013-04-28 20:17:00,
2013-04-28 16:32:00,58.4,57.0,29.81,WNW,291,2.0,4.0,95,0.00,,,0.43,weatherlink.com 1.10,2013-04-28 20:32:00,
2013-04-28 16:47:00,58.4,57.0,29.81,West,278,4.0,6.0,94,0.00,,,0.43,weatherlink.com 1.10,2013-04-28 20:47:00,
2013-04-28 17:02:00,58.2,56.0,29.82,WNW,302,2.0,6.0,92,0.00,,,0.43,weatherlink.com 1.10,2013-04-28 21:02:00,
2013-04-28 17:17:00,58.0,56.0,29.82,West,280,2.0,3.0,94,0.00,,,0.43,weatherlink.com 1.10,2013-04-28 21:17:00,
2013-04-28 17:32:00,57.7,56.0,29.82,WNW,289,3.0,6.0,93,0.00,,,0.43,weatherlink.com 1.10,2013-04-28 21:32:00,
2013-04-28 17:47:00,57.7,56.0,29.82,NW,306,2.0,4.0,94,0.00,,,0.43,weatherlink.com 1.10,2013-04-28 21:47:00,
2013-04-28 18:02:00,57.6,56.0,29.81,NW,319,0.0,3.0,93,0.00,,,0.43,weatherlink.com 1.10,2013-04-28 22:02:00,
2013-04-28 18:17:00,58.2,56.0,29.81,North,5,0.0,2.0,93,0.00,,,0.43,weatherlink.com 1.10,2013-04-28 22:17:00,
2013-04-28 18:32:00,58.2,56.0,29.82,West,277,1.0,3.0,92,0.00,,,0.43,weatherlink.com 1.10,2013-04-28 22:32:00,
2013-04-28 18:47:00,57.8,56.0,29.82,NW,323,1.0,4.0,92,0.00,,,0.43,weatherlink.com 1.10,2013-04-28 22:47:00,
2013-04-28 19:02:00,57.7,55.0,29.82,NNW,327,4.0,4.0,92,0.00,,,0.43,weatherlink.com 1.10,2013-04-28 23:02:00,
2013-04-28 19:17:00,57.4,55.0,29.82,NNW,329,1.0,5.0,92,0.00,,,0.43,weatherlink.com 1.10,2013-04-28 23:17:00,
2013-04-28 19:32:00,57.1,55.0,29.82,WNW,288,2.0,2.0,93,0.00,,,0.43,weatherlink.com 1.10,2013-04-28 23:32:00,
2013-04-28 19:47:00,57.0,55.0,29.82,NW,312,2.0,4.0,93,0.00,,,0.43,weatherlink.com 1.10,2013-04-28 23:47:00,
2013-04-28 20:02:00,56.8,55.0,29.82,West,272,1.0,5.0,94,0.00,,,0.43,weatherlink.com 1.10,2013-04-29 00:02:00,
2013-04-28 20:17:00,56.5,55.0,29.82,WNW,294,0.0,3.0,94,0.00,,,0.43,weatherlink.com 1.10,2013-04-29 00:17:00,
2013-04-28 20:32:00,56.3,55.0,29.83,NW,323,0.0,4.0,94,0.00,,,0.43,weatherlink.com 1.10,2013-04-29 00:32:00,
2013-04-28 20:47:00,56.1,54.0,29.84,NW,320,1.0,3.0,94,0.00,,,0.43,weatherlink.com 1.10,2013-04-29 00:47:00,
2013-04-28 21:02:00,56.0,54.0,29.84,NW,313,3.0,3.0,94,0.00,,,0.43,weatherlink.com 1.10,2013-04-29 01:02:00,
2013-04-28 21:17:00,55.9,55.0,29.84,WNW,284,1.0,4.0,95,0.00,,,0.43,weatherlink.com 1.10,2013-04-29 01:17:00,
2013-04-28 21:32:00,55.8,54.0,29.85,WNW,286,0.0,3.0,95,0.00,,,0.43,weatherlink.com 1.10,2013-04-29 01:32:00,
2013-04-28 21:47:00,55.7,54.0,29.85,WNW,284,0.0,2.0,95,0.00,,,0.43,weatherlink.com 1.10,2013-04-29 01:47:00,
2013-04-28 22:02:00,55.5,54.0,29.85,North,355,0.0,4.0,95,0.00,,,0.43,weatherlink.com 1.10,2013-04-29 02:02:00,
2013-04-28 22:17:00,55.3,54.0,29.86,NW,319,0.0,3.0,96,0.00,,,0.43,weatherlink.com 1.10,2013-04-29 02:17:00,
2013-04-28 22:32:00,55.2,54.0,29.86,NW,317,0.0,3.0,96,0.00,,,0.43,weatherlink.com 1.10,2013-04-29 02:32:00,
2013-04-28 22:47:00,55.0,54.0,29.86,NW,317,0.0,2.0,96,0.00,,,0.43,weatherlink.com 1.10,2013-04-29 02:47:00,
2013-04-28 23:02:00,54.9,54.0,29.86,WNW,296,0.0,4.0,96,0.00,,,0.43,weatherlink.com 1.10,2013-04-29 03:02:00,
2013-04-28 23:17:00,54.8,54.0,29.86,NW,304,0.0,3.0,96,0.00,,,0.43,weatherlink.com 1.10,2013-04-29 03:17:00,
2013-04-28 23:32:00,54.8,54.0,29.85,NNW,337,0.0,3.0,96,0.00,,,0.43,weatherlink.com 1.10,2013-04-29 03:32:00,
2013-04-28 23:47:00,54.8,54.0,29.86,NNW,337,0.0,2.0,96,0.00,,,0.43,weatherlink.com 1.10,2013-04-29 03:47:00,